To NAV CANADA Home Page Login to a new session Search on AWWS site Feedback and Comments Disclaimer Vers la page française équivalente Tips FAQ What's new on the site To the Forecasts and Observations / NOTAM section To "File a Flight Plan" website Publications and other links Update of the User's profile FIC Telephone Numbers My Weather Data Folder Route Weather Data Regional Weather Data Local Weather Data To the Forecasts and Observations / NOTAM section
Request Generated 08/31/2015 at 06:42:32 UTC . Weather information available at that time is displayed.

METAR/TAF

MARYS HARBOUR/NL    (show WxCam)

METAR CYMH 310600Z AUTO 00000KT 9SM CLR 10/10 A2980 RMK SLP090=
METAR CYMH 310500Z AUTO 00000KT 9SM SCT100 11/11 A2980 RMK SLP092=
METAR CYMH 310400Z AUTO VRB02KT 9SM SCT100 BKN130 12/11 A2981 RMK
SLP096=

*** REMARK        : Forecast period has ended; this was the last TAF issued
*** REMARQUE : La période de prévision est échue; ceci était le dernier TAF qui a été émis
TAF CYMH 301938Z 3020/3103 17012KT P6SM BKN080 TEMPO 3020/3024 P6SM
-SHRA
FM310000 18008KT P6SM SCT005 TEMPO 3100/3103 3/4SM BR BKN005
RMK FCST BASED ON AUTO OBS. NXT FCST WILL BE ISSUED AT 310845Z=
Your time UTC time
Weather data provided by Environment Canada and NAV CANADA